< < Back
Terminal Aerodrome Forecast


Current Version              Previous Versions:   1  2  3  4  5  6  7  8  9  

Terminal Aerodrome Forecast

563
FTUS42 KFFC 251001 AAB
TAFATL
TAF AMD
KATL 251001Z 2510/2612 12009KT P6SM BKN012 BKN025
     FM251400 12008KT P6SM OVC015
     FM251600 13007KT P6SM VCSH BKN025
     FM252000 13007KT P6SM VCSH BKN035 PROB30 2520/2602 VRB15G25KT
      3SM TSRA BR BKN025CB
     FM260700 14007KT P6SM BKN009=

Latest METAR

725
SAUS70 KWBC 251100 RRA
MTRATL
METAR KATL 251052Z 12005KT 10SM BKN015 BKN023 BKN250 19/16 A3027 RMK AO2
SLP240 T01940161


USA.gov is the U.S. government's official web portal to all federal, state and local government web resources and services.